10th Annual Woodhaven Run in the Park

back to results

Nov. 4, 2007

10th Annual Woodhaven Run in the Park
Woodhaven Community Cebter
Provided by Everal Race Mgt.


Overall Female Overall Winners
Place Name City Age Overall Time Pace
1 Cindy Barber Clermont FL 49 18 26:49.2 6:42/M
Overall Female Masters Winners
Place Name City Age Overall Time Pace
1 Sheen Watkins Birmingham MI 46 26 28:21.4 7:05/M
Female 19 and under
Place Name City Age Overall Time Pace
1 Rebeca Maynor Allen Park MI 13 24 28:19.0 7:05/M
2 Emily Buttigieg Woodhaven MI 16 39 31:01.0 7:45/M
3 Rachel Dee Brownstown MI 17 40 31:01.4 7:45/M
4 Carla Moeing Woodhaven MI 17 41 31:01.9 7:45/M
5 Katrina Han Rochester Hills MI 17 52 32:04.6 8:01/M
6 Ashley Dingess Brownstown MI 15 78 34:36.9 8:39/M
7 Robin Moening Woodhaven MI 15 79 34:37.3 8:39/M
Female 20 to 29
Place Name City Age Overall Time Pace
1 Hollie Tanguay Trenton MI 28 43 31:11.4 7:48/M
2 Danielle Adamczuk Berkley MI 25 54 32:18.5 8:05/M
3 Bethany Slomski Lansing MI 22 57 32:24.3 8:06/M
4 Heather Jones Wyandotte Mi 24 58 32:46.9 8:12/M
5 Tiffany Guzik Livonia MI 23 63 33:35.2 8:24/M
6 Valerie Swystun Dearborn Hgts MI 29 67 34:01.4 8:30/M
7 Mandy Mercer Brownstown MI 29 69 34:17.3 8:34/M
8 Stephanie Kapanowski Southgate MI 29 71 34:23.8 8:36/M
9 Kellie Milam Rockwood MI 23 85 35:42.1 8:56/M
10 Jillian Balduf Temperance MI 28 91 36:56.8 9:14/M
11 Jennifer Nelson Farmington Hills M 27 98 38:38.3 9:40/M
12 April Logiudice Flat Rock MI 27 108 39:55.4 9:59/M
13 Brittney Williams Flat Rock MI 21 110 40:14.2 10:04/M
14 Amanda Rourk Woodhaven MI 29 111 41:05.5 10:16/M
15 Lauren Bochenek Grosse Ile MI 27 112 41:06.2 10:17/M
16 Abby Laplante Monroe MI 23 116 41:53.5 10:28/M
17 Bekki Bandemer Woodhaven MI 28 126 44:26.8 11:07/M
Female 30 to 34
Place Name City Age Overall Time Pace
1 Carla Chinavare Newport MI 32 42 31:08.7 7:47/M
2 Nicole Ozimek Taylor MI 34 70 34:22.6 8:36/M
3 Valerie Vianueva Allen Park MI 32 88 36:18.9 9:05/M
4 Marie Deline Newport MI 30 94 37:40.5 9:25/M
5 Anya McCormick Monroe MI 30 105 39:44.9 9:56/M
Female 35 to 39
Place Name City Age Overall Time Pace
1 Mary Wallace Troy MI 39 92 37:14.2 9:19/M
2 Michelle Mumau Trenton MI 37 95 37:56.5 9:29/M
3 Julie Serazio Dearborn MI 36 97 38:19.7 9:35/M
4 Heather Croy Royal Oak MI 37 106 39:51.5 9:58/M
5 Carrie Tittle Brownstown MI 36 109 40:13.0 10:03/M
6 Wendy Nelson Brownstown MI 38 114 41:35.5 10:24/M
7 Kimberlee Depaoli Chelsea MI 38 115 41:40.6 10:25/M
8 Diane Huch Brownstown MI 38 119 42:33.7 10:38/M
Female 40 to 44
Place Name City Age Overall Time Pace
1 Corina Vianueva Brownstown MI 43 48 31:35.6 7:54/M
2 Anne Ziaja Beverly Hills MI 42 89 36:27.6 9:07/M
3 Kim Bruno Flat Rock MI 44 90 36:36.9 9:09/M
4 Kellee Howey Trenton MI 40 99 38:45.3 9:41/M
5 Lori Courtright Dearborn MI 41 101 38:52.5 9:43/M
Female 45 to 49
Place Name City Age Overall Time Pace
1 Jeanne Johnson Wyandotte MI 47 59 32:49.1 8:12/M
2 Luann Milam Rockwood MI 45 75 34:31.7 8:38/M
3 Joyce Zanley Wyandotte MI 47 117 42:05.4 10:31/M
4 Donna Korytkowski New Boston MI 45 123 43:08.1 10:47/M
5 Ann Zurbo Brownstown MI 47 125 43:56.3 10:59/M
Female 50 to 54
Place Name City Age Overall Time Pace
1 Frances Buttigieg Woodhaven MI 50 32 30:13.8 7:33/M
2 Catherine Naimola Wyandotte MI 50 107 39:54.3 9:59/M
3 Marcy Sally Wyandotte MI 51 120 42:41.2 10:40/M
Female 55 to 59
Place Name City Age Overall Time Pace
1 Karen Donaldson Allen Park MI 58 87 36:10.8 9:03/M
Female 60 and Up
Place Name City Age Overall Time Pace
1 Collie Hooper-Yan Grosse Isle MI 60 84 35:39.4 8:55/M
2 Colleen Chandler Dearborn MI 62 93 37:35.4 9:24/M




Overall Male Overall Winners
Place Name City Age Overall Time Pace
1 Ryan Piippo Royal Oak MI 29 1 21:15.2 5:19/M
Overall Male Masters Winners
Place Name City Age Overall Time Pace
1 David Watkins Birmingham MI 46 2 21:45.8 5:26/M
Male 19 & under
Place Name City Age Overall Time Pace
1 Seamus O'Hulahan Monroe MI 17 4 22:52.9 5:43/M
2 Sirius Black Monroe MI 16 6 24:11.5 6:03/M
3 Alex Salinas Dearborn MI 18 11 25:50.1 6:28/M
4 Keith Kornacki Farmington MI 15 34 30:36.0 7:39/M
5 Gregory Kornorcki Farmington MI 15 35 30:38.9 7:40/M
6 Jeramey Mullins Woodhaven MI 13 36 30:46.5 7:42/M
7 Jacob Tilk Grosse Isle MI 14 38 30:55.9 7:44/M
8 Jason Meng Rochester Hills MI 16 51 32:04.3 8:01/M
Male 20-29
Place Name City Age Overall Time Pace
1 Matthew Wallace Flat Rock MI 27 64 33:45.3 8:26/M
2 Joshua Peer Woodhaven MI 24 86 35:51.6 8:58/M
3 Kevin Hollifield Brownstown MI 24 113 41:31.9 10:23/M
Male 30-34
Place Name City Age Overall Time Pace
1 Tim Budzyn Ann Arbor MI 31 3 22:34.9 5:39/M
2 Shawn McNamara Flat Rock MI 32 12 25:53.8 6:28/M
3 Mike Croy Royal Oak MI 32 21 27:09.7 6:47/M
4 Peter Caldwell Brownstown MI 33 50 32:02.3 8:01/M
5 Justin Peer Brownstown MI 32 72 34:25.1 8:36/M
Male 35-39
Place Name City Age Overall Time Pace
1 Michael Selke Westland MI 37 5 23:01.7 5:45/M
2 Claudio Salas Allen Park MI 37 8 24:58.3 6:15/M
3 Patrick Easton Brownstown MI 35 14 26:13.7 6:33/M
4 Seth Petty Lincoln Park MI 36 17 26:39.5 6:40/M
5 Jeff Smith Tecumseh ON 39 30 29:51.3 7:28/M
6 David Chiasson Windsor ON 35 104 39:28.0 9:52/M
7 Robert Jeffrey Windsor ON 35 124 43:42.8 10:56/M
Male 40-44
Place Name City Age Overall Time Pace
1 Jim Oleksinski Grosse Pointe Woods 40 10 25:47.6 6:27/M
2 John Nelles Windsor ON 42 16 26:39.1 6:40/M
3 Joseph Robar Dearborn MI 42 29 29:32.2 7:23/M
4 Jim Zittel Waterford MI 44 31 29:54.3 7:29/M
5 Mike Strieter Plymouth MI 43 45 31:12.7 7:48/M
6 Joel Pawelczyk Woodhaven MI 40 74 34:28.8 8:37/M
7 Scott Burgess Wyandotte MI 40 83 35:25.3 8:51/M
Male 45-49
Place Name City Age Overall Time Pace
1 Paul Haworth Windsor ON 46 9 25:17.7 6:19/M
2 Kevin Sherwood Royal Oak MI 45 19 26:52.3 6:43/M
3 Ron Maynor Allen Park MI 48 25 28:19.7 7:05/M
4 John Hill Flat Rock MI 47 44 31:12.1 7:48/M
5 Nhan Cao Woodhaven MI 45 55 32:22.6 8:06/M
6 Ken Kornacki Lake Orion MI 48 56 32:23.5 8:06/M
7 Steve Hortus Trenton MI 49 60 32:51.2 8:13/M
8 Ed Milam Rockwood MI 46 76 34:32.7 8:38/M
9 Tim Kolling Dearborn Hgts MI 46 121 42:42.4 10:41/M
10 Mark Korytkowski New Boston MI 45 122 43:07.5 10:47/M
Male 50-54
Place Name City Age Overall Time Pace
1 Mark Chiaverini Gibraltar MI 51 13 26:09.8 6:32/M
2 Ed Kornacki Farmington MI 51 15 26:15.6 6:34/M
3 Josh Scully Monroe MI 50 20 26:55.3 6:44/M
4 Scott Smetana White Lake MI 50 23 27:20.0 6:50/M
5 Robert King Grosse Ile MI 53 27 28:28.7 7:07/M
6 Robin Pearce New Hudson MI 54 33 30:21.5 7:35/M
7 Thomas Powell Detroit MI 54 37 30:48.3 7:42/M
8 Gary Olsen Riverview MI 53 53 32:05.1 8:01/M
9 Kevin Rose Grosse Ile MI 51 61 33:24.1 8:21/M
10 Gary Robinson Trenton MI 51 65 33:46.6 8:27/M
11 Stephen Edwards Dundee MI 53 73 34:25.4 8:36/M
12 Steven Schwartz Farmington Hills M 52 77 34:34.7 8:39/M
13 Dan Darling Wyandotte MI 53 82 34:53.9 8:43/M
Male 55-59
Place Name City Age Overall Time Pace
1 James O'Callaghan Woodhaven MI 59 22 27:17.4 6:49/M
2 Bryane Kowalewski Trenton MI 56 28 29:05.1 7:16/M
3 Mark Delbrugge Riverview MI 56 46 31:14.3 7:49/M
4 Robert Melkvik Redford MI 56 47 31:33.5 7:53/M
5 Rick Merrill Toledo OH 56 49 31:40.0 7:55/M
6 Michael O'Keefe Riverview MI 55 68 34:12.3 8:33/M
7 Randall Upton Garden City MI 59 80 34:39.3 8:40/M
8 Chris Buttigieg Detroit MI 56 96 38:10.5 9:33/M
9 James Coyne Monroe MI 59 100 38:47.2 9:42/M
10 John Guzik Livonia MI 57 103 39:25.7 9:51/M
Male 60-64
Place Name City Age Overall Time Pace
1 Paul Deladurantaye Riverview MI 61 7 24:44.1 6:11/M
2 Tim Klinkhamer Birmingham MI 61 62 33:33.9 8:23/M
3 Dan Dewey Orion MI 61 81 34:53.4 8:43/M
4 Frank Brown Trenton MI 61 118 42:21.3 10:35/M
Male 65-69
Place Name City Age Overall Time Pace
1 Ron Jeffrey Windsor ON 66 66 34:00.3 8:30/M
Male 70 and Up
Place Name City Age Overall Time Pace
1 Harrison Hensley Pinckney MI 75 102 39:24.5 9:51/M




Overall Female 18 & under Winners
Place Name City Age Overall Time Pace
1 Jessica Wilson Detroit MI 9 12 6:48.1 6:48/M
Overall Female 19 & Over Winners
Place Name City Age Overall Time Pace
1 Katie Ling Ann Arbor MI 22 19 8:13.8 8:13/M
Female 18 and under
Place Name City Age Overall Time Pace
1 Peighton Childress Detroit MI 10 14 6:55.1 6:55/M
2 Ariel Porter Detroit MI 13 15 7:07.3 7:07/M
3 Brianna Johnson East Lansing MI 10 17 7:24.3 7:24/M
4 Mar'Kia Hurst Detroit MI 13 18 7:39.0 7:39/M
5 Madisson Baron-Galvavi Monroe MI 12 22 8:37.8 8:37/M
6 Deonna Gray Monroe MI 12 23 8:54.3 8:54/M
Female 19 & Up
Place Name City Age Overall Time Pace
1 Amanda Rumble Warren MI 23 20 8:14.8 8:14/M
2 Josie Deladurantaye Riverview MI 51 21 8:17.6 8:17/M
3 Savanna Halley Rockwood MI 21 25 9:55.1 9:55/M
4 Arlene Monaco Trenton MI 49 26 10:16.6 10:16/M
5 Danee Dwenger Woodhaven MI 19 33 13:24.5 13:24/M
6 Kim Dewenger Woodhaven MI 44 36 17:15.7 17:15/M




Overall Male 18 & under Winners
Place Name City Age Overall Time Pace
1 Joseph Banyai 17 1 4:44.2 4:44/M
Overall Male 19 & Over Winners
Place Name City Age Overall Time Pace
1 David Chiasson Windsor ON 35 3 5:09.5 5:09/M
Male 18 & Under
Place Name City Age Overall Time Pace
1 Al Lilly Royal Oak MI 16 2 5:07.0 5:07/M
2 Jeramey Mullins Woodhaven MI 13 7 5:47.4 5:47/M
3 Denzel Tinsley Detroit MI 9 10 6:28.5 6:28/M
4 Quinlan Scully Monroe MI 9 24 9:24.4 9:24/M
5 Mekulash Baron-Galbavi Monroe MI 6 27 10:53.1 10:53/M
6 Autnan Arryuin 7 28 10:57.8 10:57/M
7 Hayden Allie Brownstown MI 7 29 11:40.0 11:40/M
8 Corton Arreguin 7 31 12:00.4 12:00/M
9 Aaron Dwenger Woodhaven MI 15 34 13:26.3 13:26/M
Male 19 & Up
Place Name City Age Overall Time Pace
1 Tim Budzyn Ann Arbor MI 31 4 5:16.0 5:16/M
2 Participant Haworth 46 5 5:41.6 5:41/M
3 Paul Deladurantaye Riverview MI 61 6 5:45.3 5:45/M
4 Ed Milam Rockwood MI 46 8 5:54.1 5:54/M
5 John Nelles Windsor ON 42 9 5:58.8 5:58/M
6 Participant Smith 39 11 6:46.7 6:46/M
7 Kevin Siegwald Woodhaven MI 22 13 6:50.8 6:50/M
8 Mark Delbrugge Riverview MI 56 16 7:12.7 7:12/M
9 David Allie Brownstown MI 38 30 11:41.9 11:41/M
10 Bart Dwenger Woodhaven MI 51 35 16:47.0 16:47/M
No Age Given
Place Name City Age Overall Time Pace
1 Larry Arreguin 99 32 12:05.4 12:05/M

Woodhaven Community Cebter
Provided by Everal Race Mgt.